Bluff Estates, South Carolina
Current Conditions -  °F | °C
As of 7:53 PM on Friday 28 Nov 2014 (Local Time) from KCUB Reporting Station
Clear Clear  
Wind Chill: 37°   Ceiling: Unl
Heat Index: 37°   Visibility: 10mi
Dew Point: 29°   Wind: 0mph
Humidity: 73%   Direction: NA
Pressure: 30.35"   Gusts: NA
Location:  33.9488°N, 80.9462°W
Report Text: KCUB 290053Z AUTO 00000KT 10SM CLR 03/M02 A3035 RMK AO2 SLP278 T00281017
Loading
Personal Weather Stations






























Interactive Weather Map New forecast layout! Learn more

10-Day Weather Forecast

Advertisements
Track Severe Weather on mobile